sensor_id;sensor_type;location;lat;lon;timestamp;pressure;altitude;pressure_sealevel;temperature;humidity
39051;BME280;24805;55.852;37.644;2023-04-27T00:04:19;98628.00;;;12.65;48.56
39051;BME280;24805;55.852;37.644;2023-04-27T00:09:21;98637.41;;;12.68;49.00
39051;BME280;24805;55.852;37.644;2023-04-27T00:14:23;98644.38;;;12.62;50.02
39051;BME280;24805;55.852;37.644;2023-04-27T00:19:29;98647.25;;;12.61;48.81
39051;BME280;24805;55.852;37.644;2023-04-27T00:24:31;98643.19;;;12.58;49.26
39051;BME280;24805;55.852;37.644;2023-04-27T00:29:33;98648.53;;;12.58;48.89
39051;BME280;24805;55.852;37.644;2023-04-27T00:34:35;98656.09;;;12.55;48.62
39051;BME280;24805;55.852;37.644;2023-04-27T00:39:37;98655.50;;;12.53;48.56
39051;BME280;24805;55.852;37.644;2023-04-27T00:44:39;98656.53;;;12.52;48.65
39051;BME280;24805;55.852;37.644;2023-04-27T00:49:41;98664.72;;;12.50;48.72
39051;BME280;24805;55.852;37.644;2023-04-27T00:54:43;98665.94;;;12.48;48.82
39051;BME280;24805;55.852;37.644;2023-04-27T00:59:45;98668.00;;;12.46;48.73
39051;BME280;24805;55.852;37.644;2023-04-27T01:04:47;98654.28;;;12.42;49.48
39051;BME280;24805;55.852;37.644;2023-04-27T01:09:54;98667.78;;;12.40;49.77
39051;BME280;24805;55.852;37.644;2023-04-27T01:14:55;98665.59;;;12.37;48.12
39051;BME280;24805;55.852;37.644;2023-04-27T01:19:57;98654.13;;;12.37;48.87
39051;BME280;24805;55.852;37.644;2023-04-27T01:25:00;98659.00;;;12.40;49.31
39051;BME280;24805;55.852;37.644;2023-04-27T01:30:04;98650.00;;;12.41;48.87
39051;BME280;24805;55.852;37.644;2023-04-27T01:35:07;98653.69;;;12.40;49.28
39051;BME280;24805;55.852;37.644;2023-04-27T01:40:09;98652.28;;;12.31;50.06
39051;BME280;24805;55.852;37.644;2023-04-27T01:45:11;98657.22;;;12.21;49.89
39051;BME280;24805;55.852;37.644;2023-04-27T01:50:13;98663.19;;;12.10;50.46
39051;BME280;24805;55.852;37.644;2023-04-27T01:55:15;98670.34;;;12.02;50.53
39051;BME280;24805;55.852;37.644;2023-04-27T02:00:17;98673.00;;;12.02;49.00
39051;BME280;24805;55.852;37.644;2023-04-27T02:05:22;98667.28;;;12.05;49.91
39051;BME280;24805;55.852;37.644;2023-04-27T02:10:26;98669.53;;;12.08;50.25
39051;BME280;24805;55.852;37.644;2023-04-27T02:15:31;98677.72;;;12.07;49.90
39051;BME280;24805;55.852;37.644;2023-04-27T02:20:33;98677.91;;;12.05;50.38
39051;BME280;24805;55.852;37.644;2023-04-27T02:25:36;98685.69;;;12.07;50.43
39051;BME280;24805;55.852;37.644;2023-04-27T02:30:43;98689.78;;;12.10;50.78
39051;BME280;24805;55.852;37.644;2023-04-27T02:35:46;98694.88;;;12.18;50.66
39051;BME280;24805;55.852;37.644;2023-04-27T02:40:52;98695.47;;;12.26;50.79
39051;BME280;24805;55.852;37.644;2023-04-27T02:45:54;98696.88;;;12.35;50.36
39051;BME280;24805;55.852;37.644;2023-04-27T02:50:56;98706.47;;;12.50;50.79
39051;BME280;24805;55.852;37.644;2023-04-27T02:55:58;98711.53;;;12.64;50.34
39051;BME280;24805;55.852;37.644;2023-04-27T03:01:00;98712.06;;;12.80;49.74
39051;BME280;24805;55.852;37.644;2023-04-27T03:06:03;98728.41;;;12.96;49.91
39051;BME280;24805;55.852;37.644;2023-04-27T03:11:05;98727.50;;;13.09;50.06
39051;BME280;24805;55.852;37.644;2023-04-27T03:16:09;98734.41;;;13.23;49.84
39051;BME280;24805;55.852;37.644;2023-04-27T03:21:14;98734.72;;;13.40;49.68
39051;BME280;24805;55.852;37.644;2023-04-27T03:26:17;98734.66;;;13.53;49.42
39051;BME280;24805;55.852;37.644;2023-04-27T03:31:19;98748.06;;;13.71;49.33
39051;BME280;24805;55.852;37.644;2023-04-27T03:36:21;98745.47;;;13.90;48.88
39051;BME280;24805;55.852;37.644;2023-04-27T03:41:23;98746.53;;;14.07;48.57
39051;BME280;24805;55.852;37.644;2023-04-27T03:46:25;98750.50;;;14.23;48.53
39051;BME280;24805;55.852;37.644;2023-04-27T03:51:29;98753.50;;;14.33;48.41
39051;BME280;24805;55.852;37.644;2023-04-27T03:56:31;98764.28;;;14.44;48.50
39051;BME280;24805;55.852;37.644;2023-04-27T04:01:34;98765.78;;;14.59;48.41
39051;BME280;24805;55.852;37.644;2023-04-27T04:06:36;98765.41;;;14.73;48.68
39051;BME280;24805;55.852;37.644;2023-04-27T04:11:38;98771.25;;;14.82;48.36
39051;BME280;24805;55.852;37.644;2023-04-27T04:16:43;98779.44;;;14.87;48.17
39051;BME280;24805;55.852;37.644;2023-04-27T04:21:46;98777.63;;;14.99;48.07
39051;BME280;24805;55.852;37.644;2023-04-27T04:26:48;98782.16;;;15.17;47.96
39051;BME280;24805;55.852;37.644;2023-04-27T04:31:50;98775.97;;;15.35;47.92
39051;BME280;24805;55.852;37.644;2023-04-27T04:36:52;98790.09;;;15.54;48.01
39051;BME280;24805;55.852;37.644;2023-04-27T04:41:55;98783.31;;;15.69;47.61
39051;BME280;24805;55.852;37.644;2023-04-27T04:47:00;98784.06;;;15.88;46.87
39051;BME280;24805;55.852;37.644;2023-04-27T04:52:02;98787.81;;;16.10;46.60
39051;BME280;24805;55.852;37.644;2023-04-27T04:57:07;98786.22;;;16.33;46.37
39051;BME280;24805;55.852;37.644;2023-04-27T05:02:09;98789.94;;;16.55;45.83
39051;BME280;24805;55.852;37.644;2023-04-27T05:07:11;98791.91;;;16.83;45.97
39051;BME280;24805;55.852;37.644;2023-04-27T05:12:16;98789.47;;;17.90;46.73
39051;BME280;24805;55.852;37.644;2023-04-27T05:17:18;98793.47;;;19.37;46.21
39051;BME280;24805;55.852;37.644;2023-04-27T05:22:20;98799.56;;;20.77;45.96
39051;BME280;24805;55.852;37.644;2023-04-27T05:27:21;98801.91;;;22.08;45.11
39051;BME280;24805;55.852;37.644;2023-04-27T05:32:23;98811.97;;;23.28;44.46
39051;BME280;24805;55.852;37.644;2023-04-27T05:37:26;98808.41;;;24.31;43.14
39051;BME280;24805;55.852;37.644;2023-04-27T05:42:28;98808.59;;;24.97;42.66
39051;BME280;24805;55.852;37.644;2023-04-27T05:47:30;98802.22;;;25.50;39.95
39051;BME280;24805;55.852;37.644;2023-04-27T05:52:32;98802.28;;;26.20;39.21
39051;BME280;24805;55.852;37.644;2023-04-27T05:57:35;98803.47;;;26.92;38.22
39051;BME280;24805;55.852;37.644;2023-04-27T06:02:38;98799.31;;;27.77;38.30
39051;BME280;24805;55.852;37.644;2023-04-27T06:07:40;98806.16;;;28.33;34.82
39051;BME280;24805;55.852;37.644;2023-04-27T06:12:44;98802.31;;;28.34;30.56
39051;BME280;24805;55.852;37.644;2023-04-27T06:17:46;98804.63;;;28.71;33.29
39051;BME280;24805;55.852;37.644;2023-04-27T06:22:48;98802.16;;;28.61;31.15
39051;BME280;24805;55.852;37.644;2023-04-27T06:27:50;98794.91;;;27.40;32.04
39051;BME280;24805;55.852;37.644;2023-04-27T06:32:52;98818.44;;;27.36;30.75
39051;BME280;24805;55.852;37.644;2023-04-27T06:37:54;98822.44;;;27.52;31.11
39051;BME280;24805;55.852;37.644;2023-04-27T06:42:59;98817.09;;;28.64;30.52
39051;BME280;24805;55.852;37.644;2023-04-27T06:48:01;98820.69;;;29.04;28.89
39051;BME280;24805;55.852;37.644;2023-04-27T06:53:03;98830.47;;;28.96;28.08
39051;BME280;24805;55.852;37.644;2023-04-27T06:58:05;98831.63;;;29.12;27.28
39051;BME280;24805;55.852;37.644;2023-04-27T07:03:07;98832.91;;;29.63;26.90
39051;BME280;24805;55.852;37.644;2023-04-27T07:08:10;98835.88;;;30.10;23.88
39051;BME280;24805;55.852;37.644;2023-04-27T07:16:31;98826.38;;;28.32;20.99
39051;BME280;24805;55.852;37.644;2023-04-27T07:21:34;98821.19;;;28.75;21.08
39051;BME280;24805;55.852;37.644;2023-04-27T07:26:36;98823.28;;;29.57;20.63
39051;BME280;24805;55.852;37.644;2023-04-27T07:31:38;98824.59;;;30.20;19.98
39051;BME280;24805;55.852;37.644;2023-04-27T07:36:40;98820.75;;;30.94;18.78
39051;BME280;24805;55.852;37.644;2023-04-27T07:41:42;98816.97;;;31.45;17.95
39051;BME280;24805;55.852;37.644;2023-04-27T07:46:44;98825.72;;;31.68;17.05
39051;BME280;24805;55.852;37.644;2023-04-27T07:51:49;98833.47;;;31.66;17.00
39051;BME280;24805;55.852;37.644;2023-04-27T07:56:51;98826.00;;;31.96;17.19
39051;BME280;24805;55.852;37.644;2023-04-27T08:01:54;98824.53;;;32.52;16.46
39051;BME280;24805;55.852;37.644;2023-04-27T08:07:17;98841.28;;;32.71;16.72
39051;BME280;24805;55.852;37.644;2023-04-27T08:12:20;98828.06;;;32.98;16.41
39051;BME280;24805;55.852;37.644;2023-04-27T08:17:22;98835.31;;;32.57;16.05
39051;BME280;24805;55.852;37.644;2023-04-27T08:22:24;98828.72;;;32.16;15.83
39051;BME280;24805;55.852;37.644;2023-04-27T08:27:26;98811.84;;;32.60;15.85
39051;BME280;24805;55.852;37.644;2023-04-27T08:32:28;98819.16;;;33.13;15.80
39051;BME280;24805;55.852;37.644;2023-04-27T08:37:32;98819.94;;;34.14;14.58
39051;BME280;24805;55.852;37.644;2023-04-27T08:42:34;98816.38;;;35.01;14.41
39051;BME280;24805;55.852;37.644;2023-04-27T08:47:37;98822.06;;;35.75;13.55
39051;BME280;24805;55.852;37.644;2023-04-27T08:52:47;98818.53;;;35.58;14.00
39051;BME280;24805;55.852;37.644;2023-04-27T08:57:57;98825.22;;;35.57;13.86
39051;BME280;24805;55.852;37.644;2023-04-27T09:02:59;98819.78;;;35.61;14.17
39051;BME280;24805;55.852;37.644;2023-04-27T09:08:05;98811.16;;;36.59;13.25
39051;BME280;24805;55.852;37.644;2023-04-27T09:13:08;98814.81;;;37.09;12.86
39051;BME280;24805;55.852;37.644;2023-04-27T09:18:19;98808.25;;;36.94;13.50
39051;BME280;24805;55.852;37.644;2023-04-27T09:23:29;98802.94;;;37.31;13.40
39051;BME280;24805;55.852;37.644;2023-04-27T09:28:33;98805.94;;;36.96;12.67
39051;BME280;24805;55.852;37.644;2023-04-27T09:33:35;98800.66;;;38.26;12.03
39051;BME280;24805;55.852;37.644;2023-04-27T09:38:37;98788.28;;;38.98;12.21
39051;BME280;24805;55.852;37.644;2023-04-27T09:43:42;98794.75;;;36.89;12.76
39051;BME280;24805;55.852;37.644;2023-04-27T09:48:46;98795.72;;;35.42;14.31
39051;BME280;24805;55.852;37.644;2023-04-27T09:53:56;98794.78;;;36.08;14.56
39051;BME280;24805;55.852;37.644;2023-04-27T10:05:21;98792.91;;;36.97;14.48
39051;BME280;24805;55.852;37.644;2023-04-27T10:10:02;98789.81;;;38.11;12.75
39051;BME280;24805;55.852;37.644;2023-04-27T10:15:12;98805.28;;;37.29;12.29
39051;BME280;24805;55.852;37.644;2023-04-27T10:20:15;98788.56;;;33.39;15.55
39051;BME280;24805;55.852;37.644;2023-04-27T10:25:24;98786.84;;;31.87;17.55
39051;BME280;24805;55.852;37.644;2023-04-27T10:30:33;98785.25;;;34.26;16.30
39051;BME280;24805;55.852;37.644;2023-04-27T10:35:36;98781.88;;;34.76;15.19
39051;BME280;24805;55.852;37.644;2023-04-27T10:40:38;98785.56;;;32.71;16.36
39051;BME280;24805;55.852;37.644;2023-04-27T10:45:43;98794.69;;;30.15;18.54
39051;BME280;24805;55.852;37.644;2023-04-27T10:50:46;98770.69;;;28.64;20.19
39051;BME280;24805;55.852;37.644;2023-04-27T10:55:55;98779.06;;;29.64;19.89
39051;BME280;24805;55.852;37.644;2023-04-27T11:00:57;98779.69;;;30.94;17.98
39051;BME280;24805;55.852;37.644;2023-04-27T11:06:03;98790.63;;;30.56;17.56
39051;BME280;24805;55.852;37.644;2023-04-27T11:11:06;98798.03;;;28.41;19.17
39051;BME280;24805;55.852;37.644;2023-04-27T11:16:10;98801.31;;;26.94;21.42
39051;BME280;24805;55.852;37.644;2023-04-27T11:21:17;98806.88;;;26.05;23.30
39051;BME280;24805;55.852;37.644;2023-04-27T11:26:22;98794.00;;;24.88;26.37
39051;BME280;24805;55.852;37.644;2023-04-27T11:31:40;98810.28;;;24.88;26.50
39051;BME280;24805;55.852;37.644;2023-04-27T11:36:45;98815.41;;;26.50;25.76
39051;BME280;24805;55.852;37.644;2023-04-27T11:42:20;98860.72;;;28.33;21.86
39051;BME280;24805;55.852;37.644;2023-04-27T11:47:27;98838.50;;;27.26;23.41
39051;BME280;24805;55.852;37.644;2023-04-27T11:52:34;98837.63;;;26.38;24.21
39051;BME280;24805;55.852;37.644;2023-04-27T11:57:37;98831.97;;;25.17;24.77
39051;BME280;24805;55.852;37.644;2023-04-27T12:02:41;98844.59;;;24.45;25.70
39051;BME280;24805;55.852;37.644;2023-04-27T12:07:44;98828.06;;;24.76;25.90
39051;BME280;24805;55.852;37.644;2023-04-27T12:12:46;98817.84;;;26.52;24.25
39051;BME280;24805;55.852;37.644;2023-04-27T12:17:48;98809.59;;;28.78;22.46
39051;BME280;24805;55.852;37.644;2023-04-27T12:22:50;98823.16;;;30.31;20.53
39051;BME280;24805;55.852;37.644;2023-04-27T12:27:52;98813.28;;;31.11;19.96
39051;BME280;24805;55.852;37.644;2023-04-27T12:32:54;98799.38;;;31.46;19.58
39051;BME280;24805;55.852;37.644;2023-04-27T12:37:56;98792.50;;;31.69;19.15
39051;BME280;24805;55.852;37.644;2023-04-27T12:42:59;98817.69;;;31.83;18.89
39051;BME280;24805;55.852;37.644;2023-04-27T12:48:02;98814.56;;;31.14;18.97
39051;BME280;24805;55.852;37.644;2023-04-27T12:53:05;98801.91;;;30.37;19.63
39051;BME280;24805;55.852;37.644;2023-04-27T12:58:07;98792.25;;;30.22;20.10
39051;BME280;24805;55.852;37.644;2023-04-27T13:03:09;98785.25;;;30.59;19.91
39051;BME280;24805;55.852;37.644;2023-04-27T13:08:11;98795.81;;;30.14;19.72
39051;BME280;24805;55.852;37.644;2023-04-27T13:13:13;98801.25;;;29.88;20.24
39051;BME280;24805;55.852;37.644;2023-04-27T13:18:15;98790.72;;;29.38;20.65
39051;BME280;24805;55.852;37.644;2023-04-27T13:23:17;98785.47;;;29.42;20.55
39051;BME280;24805;55.852;37.644;2023-04-27T13:28:19;98795.25;;;29.34;20.27
39051;BME280;24805;55.852;37.644;2023-04-27T13:33:21;98788.38;;;28.97;20.61
39051;BME280;24805;55.852;37.644;2023-04-27T13:38:24;98782.22;;;28.52;20.59
39051;BME280;24805;55.852;37.644;2023-04-27T13:43:26;98803.09;;;28.12;21.09
39051;BME280;24805;55.852;37.644;2023-04-27T13:48:29;98793.06;;;27.63;21.75
39051;BME280;24805;55.852;37.644;2023-04-27T13:53:31;98795.63;;;26.91;23.01
39051;BME280;24805;55.852;37.644;2023-04-27T13:58:33;98808.00;;;26.18;24.21
39051;BME280;24805;55.852;37.644;2023-04-27T14:03:35;98790.72;;;25.58;24.38
39051;BME280;24805;55.852;37.644;2023-04-27T14:08:37;98781.19;;;24.94;25.44
39051;BME280;24805;55.852;37.644;2023-04-27T14:13:39;98796.44;;;24.61;25.54
39051;BME280;24805;55.852;37.644;2023-04-27T14:18:41;98785.09;;;24.30;26.18
39051;BME280;24805;55.852;37.644;2023-04-27T14:23:43;98770.75;;;23.90;26.36
39051;BME280;24805;55.852;37.644;2023-04-27T14:28:45;98791.19;;;23.73;27.10
39051;BME280;24805;55.852;37.644;2023-04-27T14:33:47;98790.72;;;23.60;27.18
39051;BME280;24805;55.852;37.644;2023-04-27T14:38:49;98800.78;;;23.55;27.09
39051;BME280;24805;55.852;37.644;2023-04-27T14:43:52;98797.88;;;23.36;27.29
39051;BME280;24805;55.852;37.644;2023-04-27T14:48:54;98787.91;;;23.21;27.68
39051;BME280;24805;55.852;37.644;2023-04-27T14:53:57;98791.69;;;23.20;28.08
39051;BME280;24805;55.852;37.644;2023-04-27T14:58:59;98799.88;;;23.10;27.82
39051;BME280;24805;55.852;37.644;2023-04-27T15:04:01;98801.84;;;22.89;28.25
39051;BME280;24805;55.852;37.644;2023-04-27T15:09:04;98807.25;;;22.64;28.55
39051;BME280;24805;55.852;37.644;2023-04-27T15:14:07;98797.28;;;22.39;28.68
39051;BME280;24805;55.852;37.644;2023-04-27T15:19:09;98803.50;;;22.24;29.46
39051;BME280;24805;55.852;37.644;2023-04-27T15:24:11;98798.66;;;22.11;29.55
39051;BME280;24805;55.852;37.644;2023-04-27T15:29:13;98804.56;;;21.93;29.82
39051;BME280;24805;55.852;37.644;2023-04-27T15:34:16;98805.34;;;21.78;29.96
39051;BME280;24805;55.852;37.644;2023-04-27T15:39:18;98806.13;;;21.69;29.92
39051;BME280;24805;55.852;37.644;2023-04-27T15:44:20;98813.41;;;21.58;30.02
39051;BME280;24805;55.852;37.644;2023-04-27T15:49:22;98811.75;;;21.47;30.15
39051;BME280;24805;55.852;37.644;2023-04-27T15:54:24;98791.44;;;21.24;30.24
39051;BME280;24805;55.852;37.644;2023-04-27T15:59:26;98814.63;;;21.25;30.52
39051;BME280;24805;55.852;37.644;2023-04-27T16:04:29;98814.06;;;21.18;30.67
39051;BME280;24805;55.852;37.644;2023-04-27T16:09:31;98825.34;;;21.10;30.81
39051;BME280;24805;55.852;37.644;2023-04-27T16:14:33;98820.16;;;20.98;31.12
39051;BME280;24805;55.852;37.644;2023-04-27T16:19:35;98821.69;;;20.84;31.21
39051;BME280;24805;55.852;37.644;2023-04-27T16:24:37;98821.63;;;20.74;31.51
39051;BME280;24805;55.852;37.644;2023-04-27T16:29:39;98818.06;;;20.63;31.82
39051;BME280;24805;55.852;37.644;2023-04-27T16:34:41;98811.19;;;20.45;31.78
39051;BME280;24805;55.852;37.644;2023-04-27T16:39:44;98827.84;;;20.37;32.35
39051;BME280;24805;55.852;37.644;2023-04-27T16:44:46;98840.69;;;20.30;32.35
39051;BME280;24805;55.852;37.644;2023-04-27T16:49:48;98844.88;;;20.16;32.57
39051;BME280;24805;55.852;37.644;2023-04-27T16:54:50;98853.16;;;20.09;33.04
39051;BME280;24805;55.852;37.644;2023-04-27T16:59:52;98848.75;;;19.98;32.81
39051;BME280;24805;55.852;37.644;2023-04-27T17:04:55;98837.22;;;19.76;33.38
39051;BME280;24805;55.852;37.644;2023-04-27T17:09:58;98863.09;;;19.77;33.40
39051;BME280;24805;55.852;37.644;2023-04-27T17:15:01;98865.91;;;19.65;33.67
39051;BME280;24805;55.852;37.644;2023-04-27T17:20:13;98861.56;;;19.42;34.41
39051;BME280;24805;55.852;37.644;2023-04-27T17:25:15;98869.94;;;19.46;34.19
39051;BME280;24805;55.852;37.644;2023-04-27T17:30:18;98846.69;;;19.35;34.69
39051;BME280;24805;55.852;37.644;2023-04-27T17:35:20;98861.56;;;19.42;34.59
39051;BME280;24805;55.852;37.644;2023-04-27T17:40:22;98856.38;;;19.36;34.82
39051;BME280;24805;55.852;37.644;2023-04-27T17:45:24;98875.47;;;19.34;35.26
39051;BME280;24805;55.852;37.644;2023-04-27T17:50:29;98855.06;;;19.16;35.27
39051;BME280;24805;55.852;37.644;2023-04-27T17:55:32;98876.00;;;19.14;35.91
39051;BME280;24805;55.852;37.644;2023-04-27T18:00:34;98867.53;;;19.06;35.99
39051;BME280;24805;55.852;37.644;2023-04-27T18:05:36;98874.66;;;18.95;36.75
39051;BME280;24805;55.852;37.644;2023-04-27T18:10:38;98873.38;;;18.81;37.21
39051;BME280;24805;55.852;37.644;2023-04-27T18:15:40;98868.66;;;18.71;37.56
39051;BME280;24805;55.852;37.644;2023-04-27T18:20:42;98865.91;;;18.66;37.25
39051;BME280;24805;55.852;37.644;2023-04-27T18:25:45;98862.88;;;18.63;37.57
39051;BME280;24805;55.852;37.644;2023-04-27T18:30:48;98869.75;;;18.58;37.38
39051;BME280;24805;55.852;37.644;2023-04-27T18:35:50;98875.09;;;18.53;37.61
39051;BME280;24805;55.852;37.644;2023-04-27T18:40:52;98868.91;;;18.53;37.87
39051;BME280;24805;55.852;37.644;2023-04-27T18:45:54;98865.31;;;18.47;37.58
39051;BME280;24805;55.852;37.644;2023-04-27T18:50:57;98867.09;;;18.42;38.10
39051;BME280;24805;55.852;37.644;2023-04-27T18:55:59;98854.66;;;18.36;38.01
39051;BME280;24805;55.852;37.644;2023-04-27T19:01:01;98866.28;;;18.41;38.70
39051;BME280;24805;55.852;37.644;2023-04-27T19:06:03;98862.19;;;18.39;38.09
39051;BME280;24805;55.852;37.644;2023-04-27T19:11:05;98862.63;;;18.31;37.97
39051;BME280;24805;55.852;37.644;2023-04-27T19:16:08;98860.91;;;18.24;38.63
39051;BME280;24805;55.852;37.644;2023-04-27T19:21:11;98851.22;;;18.23;38.48
39051;BME280;24805;55.852;37.644;2023-04-27T19:26:13;98855.13;;;18.16;38.90
39051;BME280;24805;55.852;37.644;2023-04-27T19:31:16;98848.72;;;18.17;38.54
39051;BME280;24805;55.852;37.644;2023-04-27T19:36:19;98852.34;;;18.11;39.08
39051;BME280;24805;55.852;37.644;2023-04-27T19:41:21;98855.28;;;18.09;38.63
39051;BME280;24805;55.852;37.644;2023-04-27T19:46:24;98843.97;;;18.07;39.07
39051;BME280;24805;55.852;37.644;2023-04-27T19:51:27;98845.84;;;18.07;38.79
39051;BME280;24805;55.852;37.644;2023-04-27T19:56:30;98849.72;;;17.99;39.49
39051;BME280;24805;55.852;37.644;2023-04-27T20:01:32;98853.66;;;18.42;36.47
39051;BME280;24805;55.852;37.644;2023-04-27T20:06:34;98834.06;;;17.79;39.64
39051;BME280;24805;55.852;37.644;2023-04-27T20:11:36;98853.66;;;17.80;39.95
39051;BME280;24805;55.852;37.644;2023-04-27T20:16:38;98862.69;;;17.74;40.28
39051;BME280;24805;55.852;37.644;2023-04-27T20:21:40;98867.13;;;17.68;40.25
39051;BME280;24805;55.852;37.644;2023-04-27T20:26:43;98861.88;;;17.62;40.49
39051;BME280;24805;55.852;37.644;2023-04-27T20:31:45;98857.47;;;17.55;40.42
39051;BME280;24805;55.852;37.644;2023-04-27T20:36:49;98859.25;;;17.50;40.90
39051;BME280;24805;55.852;37.644;2023-04-27T20:41:53;98850.28;;;17.44;40.93
39051;BME280;24805;55.852;37.644;2023-04-27T20:46:55;98855.88;;;17.83;38.65
39051;BME280;24805;55.852;37.644;2023-04-27T20:51:57;98846.94;;;17.37;41.24
39051;BME280;24805;55.852;37.644;2023-04-27T20:56:59;98838.09;;;17.25;41.40
39051;BME280;24805;55.852;37.644;2023-04-27T21:02:02;98849.03;;;17.23;41.96
39051;BME280;24805;55.852;37.644;2023-04-27T21:07:05;98848.69;;;17.20;41.92
39051;BME280;24805;55.852;37.644;2023-04-27T21:12:07;98843.50;;;17.13;42.56
39051;BME280;24805;55.852;37.644;2023-04-27T21:17:10;98842.09;;;17.11;42.53
39051;BME280;24805;55.852;37.644;2023-04-27T21:22:15;98840.34;;;17.05;42.77
39051;BME280;24805;55.852;37.644;2023-04-27T21:27:17;98842.09;;;16.99;42.65
39051;BME280;24805;55.852;37.644;2023-04-27T21:32:20;98844.44;;;16.96;42.93
39051;BME280;24805;55.852;37.644;2023-04-27T21:37:21;98843.91;;;17.34;39.92
39051;BME280;24805;55.852;37.644;2023-04-27T21:42:23;98827.56;;;16.83;43.15
39051;BME280;24805;55.852;37.644;2023-04-27T21:47:26;98834.56;;;16.73;43.56
39051;BME280;24805;55.852;37.644;2023-04-27T21:52:28;98827.09;;;16.63;43.73
39051;BME280;24805;55.852;37.644;2023-04-27T21:57:31;98826.97;;;16.58;44.20
39051;BME280;24805;55.852;37.644;2023-04-27T22:02:36;98829.53;;;16.53;44.10
39051;BME280;24805;55.852;37.644;2023-04-27T22:07:38;98828.22;;;16.44;44.79
39051;BME280;24805;55.852;37.644;2023-04-27T22:12:40;98837.31;;;16.43;44.97
39051;BME280;24805;55.852;37.644;2023-04-27T22:17:42;98838.81;;;16.39;45.05
39051;BME280;24805;55.852;37.644;2023-04-27T22:22:45;98832.78;;;16.32;45.25
39051;BME280;24805;55.852;37.644;2023-04-27T22:27:47;98823.78;;;16.26;45.28
39051;BME280;24805;55.852;37.644;2023-04-27T22:32:49;98841.78;;;16.72;42.67
39051;BME280;24805;55.852;37.644;2023-04-27T22:37:51;98839.25;;;16.12;45.51
39051;BME280;24805;55.852;37.644;2023-04-27T22:42:53;98827.34;;;15.97;46.02
39051;BME280;24805;55.852;37.644;2023-04-27T22:47:56;98829.09;;;15.91;46.38
39051;BME280;24805;55.852;37.644;2023-04-27T22:52:58;98836.38;;;15.84;46.50
39051;BME280;24805;55.852;37.644;2023-04-27T22:58:01;98834.63;;;15.78;46.81
39051;BME280;24805;55.852;37.644;2023-04-27T23:03:03;98824.16;;;16.18;42.15
39051;BME280;24805;55.852;37.644;2023-04-27T23:08:05;98824.03;;;15.71;46.70
39051;BME280;24805;55.852;37.644;2023-04-27T23:13:07;98828.50;;;15.59;46.93
39051;BME280;24805;55.852;37.644;2023-04-27T23:18:11;98819.22;;;15.43;47.71
39051;BME280;24805;55.852;37.644;2023-04-27T23:23:13;98822.00;;;15.37;48.04
39051;BME280;24805;55.852;37.644;2023-04-27T23:28:15;98828.22;;;15.31;48.19
39051;BME280;24805;55.852;37.644;2023-04-27T23:33:17;98834.50;;;15.73;43.15
39051;BME280;24805;55.852;37.644;2023-04-27T23:38:19;98841.00;;;15.29;47.77
39051;BME280;24805;55.852;37.644;2023-04-27T23:43:21;98821.06;;;15.13;48.66
39051;BME280;24805;55.852;37.644;2023-04-27T23:48:23;98819.56;;;15.17;48.98
39051;BME280;24805;55.852;37.644;2023-04-27T23:53:25;98815.13;;;15.59;45.06
39051;BME280;24805;55.852;37.644;2023-04-27T23:58:27;98816.81;;;15.05;48.86
